Time;durP1;ratioP1;P1;durP2;ratioP2;P2;SDS_P1;SDS_P2;PMS_P1;PMS_P2;Temp;Humidity;BMP_temperature;BMP_pressure;BME280_temperature;BME280_humidity;BME280_pressure;Samples;Min_cycle;Max_cycle;Signal;HPM_P1;HPM_P2
2023/12/29 00:02:14;;;;;;;2.23;1.73;;;16.50;68.00;17.40;100266.00;;;;5079218;28;20195;-49
2023/12/29 00:04:40;;;;;;;1.80;1.60;;;16.50;68.00;17.40;100264.00;;;;5081104;28;20545;-48
2023/12/29 00:07:05;;;;;;;2.30;1.63;;;16.50;67.90;17.40;100261.00;;;;5076519;28;20178;-48
2023/12/29 00:09:38;;;;;;;2.03;1.50;;;16.50;68.00;17.40;100274.00;;;;5082450;28;20174;-48
2023/12/29 00:12:04;;;;;;;1.87;1.60;;;16.50;67.90;17.30;100258.00;;;;5087810;28;20342;-47
2023/12/29 00:14:29;;;;;;;2.87;1.67;;;16.50;67.90;17.30;100266.00;;;;5073808;28;20215;-48
2023/12/29 00:16:57;;;;;;;3.53;1.80;;;16.40;67.80;17.30;100244.00;;;;5075559;28;20176;-47
2023/12/29 00:19:22;;;;;;;2.73;1.80;;;16.40;67.90;17.30;100256.00;;;;5075188;28;20175;-48
2023/12/29 00:21:48;;;;;;;1.70;1.60;;;16.40;67.90;17.30;100248.00;;;;5077760;28;20222;-48
2023/12/29 00:24:14;;;;;;;1.83;1.60;;;16.40;67.90;17.30;100232.00;;;;5078199;28;20173;-48
2023/12/29 00:26:40;;;;;;;2.03;1.80;;;16.50;68.00;17.30;100248.00;;;;5073054;28;20172;-48
2023/12/29 00:29:06;;;;;;;1.90;1.70;;;16.40;68.60;17.30;100251.00;;;;5075291;28;20210;-48
2023/12/29 00:31:32;;;;;;;2.03;1.50;;;16.50;67.90;17.30;100247.00;;;;5072477;28;20239;-48
2023/12/29 00:33:58;;;;;;;1.67;1.57;;;16.40;67.80;17.30;100228.00;;;;5074851;28;20170;-49
2023/12/29 00:36:24;;;;;;;2.17;1.90;;;16.40;67.80;17.30;100233.00;;;;5075975;28;20176;-48
2023/12/29 00:38:50;;;;;;;1.90;1.70;;;16.50;67.90;17.30;100232.00;;;;5075641;28;20177;-47
2023/12/29 00:41:15;;;;;;;1.93;1.70;;;16.40;67.60;17.30;100231.00;;;;5074423;28;20206;-48
2023/12/29 00:43:41;;;;;;;2.23;1.80;;;16.50;67.60;17.40;100232.00;;;;5076482;28;20168;-48
2023/12/29 00:46:08;;;;;;;1.70;1.60;;;16.50;67.60;17.40;100238.00;;;;5078057;28;20187;-48
2023/12/29 00:48:34;;;;;;;1.50;1.40;;;16.40;67.50;17.40;100229.00;;;;5073334;28;20180;-48
2023/12/29 00:51:03;;;;;;;1.50;1.40;;;16.40;67.50;17.40;100222.00;;;;5075971;28;20755;-48
2023/12/29 00:53:31;;;;;;;2.00;1.80;;;16.40;67.50;17.40;100214.00;;;;5075841;28;20232;-48
2023/12/29 00:55:57;;;;;;;1.77;1.67;;;16.40;67.50;17.40;100217.00;;;;5068745;28;20196;-48
2023/12/29 00:58:23;;;;;;;2.10;1.63;;;16.40;67.40;17.40;100217.00;;;;5074201;28;20169;-49
2023/12/29 01:00:49;;;;;;;2.00;1.67;;;16.40;67.40;17.40;100208.00;;;;5073405;28;20274;-48
2023/12/29 01:03:15;;;;;;;2.00;1.80;;;16.50;67.40;17.40;100205.00;;;;5073262;28;20177;-48
2023/12/29 01:05:41;;;;;;;1.50;1.40;;;16.40;67.30;17.40;100219.00;;;;5074590;28;20335;-47
2023/12/29 01:08:06;;;;;;;3.47;1.70;;;16.40;67.30;17.40;100216.00;;;;5076695;28;20179;-48
2023/12/29 01:10:32;;;;;;;1.73;1.60;;;16.40;67.30;17.40;100215.00;;;;5071743;28;20204;-47
2023/12/29 01:12:58;;;;;;;1.60;1.50;;;16.40;67.20;17.40;100213.00;;;;5079173;28;20170;-48
2023/12/29 01:15:24;;;;;;;1.90;1.63;;;16.40;67.30;17.40;100209.00;;;;5072466;28;20189;-47
2023/12/29 01:17:49;;;;;;;1.70;1.50;;;16.40;67.30;17.40;100205.00;;;;5072581;28;20732;-48
2023/12/29 01:20:15;;;;;;;1.70;1.60;;;16.40;67.40;17.40;100199.00;;;;5072584;28;20169;-49
2023/12/29 01:22:41;;;;;;;1.60;1.50;;;16.40;67.30;17.40;100188.00;;;;5074233;28;20166;-48
2023/12/29 01:25:07;;;;;;;1.73;1.40;;;16.40;67.30;17.40;100193.00;;;;5050420;28;20696;-48
2023/12/29 01:27:33;;;;;;;1.63;1.50;;;16.30;67.20;17.40;100182.00;;;;5072621;28;20209;-48
2023/12/29 01:29:59;;;;;;;1.40;1.30;;;16.30;67.20;17.30;100179.00;;;;5073067;28;20205;-49
2023/12/29 01:32:25;;;;;;;2.43;1.57;;;16.40;67.30;17.40;100183.00;;;;5046483;28;20642;-48
2023/12/29 01:34:52;;;;;;;1.80;1.70;;;16.40;67.30;17.40;100183.00;;;;5069976;28;20191;-48
2023/12/29 01:37:18;;;;;;;2.27;1.80;;;16.40;67.30;17.40;100191.00;;;;5072220;28;20648;-48
2023/12/29 01:39:43;;;;;;;1.47;1.37;;;16.40;67.20;17.40;100197.00;;;;5073920;28;20194;-48
2023/12/29 01:42:11;;;;;;;1.70;1.50;;;16.30;67.20;17.30;100195.00;;;;5035066;28;20192;-48
2023/12/29 01:44:36;;;;;;;2.23;1.70;;;16.30;67.10;17.30;100185.00;;;;5075959;28;20255;-48
2023/12/29 01:47:03;;;;;;;2.67;1.67;;;16.30;67.20;17.30;100189.00;;;;5051685;28;20626;-51
2023/12/29 01:49:28;;;;;;;1.50;1.40;;;16.30;67.20;17.40;100195.00;;;;5048189;28;20193;-48
2023/12/29 01:51:58;;;;;;;2.10;1.60;;;16.30;67.20;17.30;100171.00;;;;5076173;28;20757;-48
2023/12/29 01:54:26;;;;;;;2.07;1.70;;;16.30;67.40;17.30;100191.00;;;;5038165;28;20194;-48
2023/12/29 01:56:55;;;;;;;2.43;1.83;;;16.30;67.30;17.10;100181.00;;;;5053059;28;20184;-48
2023/12/29 01:59:20;;;;;;;1.60;1.50;;;16.30;67.40;17.30;100187.00;;;;5047698;28;20173;-47
2023/12/29 02:01:46;;;;;;;1.97;1.50;;;16.30;67.40;17.30;100188.00;;;;5040701;28;20808;-49
2023/12/29 02:04:12;;;;;;;1.57;1.43;;;16.30;67.30;17.30;100190.00;;;;5054302;28;20664;-48
2023/12/29 02:06:38;;;;;;;1.60;1.50;;;16.30;67.40;17.30;100165.00;;;;5043110;28;20174;-47
2023/12/29 02:09:04;;;;;;;2.30;1.70;;;16.30;67.40;17.30;100183.00;;;;5045617;28;20248;-48
2023/12/29 02:11:30;;;;;;;2.23;1.70;;;16.20;67.30;17.30;100184.00;;;;5071983;28;20686;-48
2023/12/29 02:13:55;;;;;;;1.73;1.50;;;16.30;67.30;17.30;100181.00;;;;5075254;28;20165;-48
2023/12/29 02:17:02;;;;;;;1.70;1.60;;;16.30;67.40;17.30;100174.00;;;;5068838;28;20691;-48
2023/12/29 02:19:40;;;;;;;1.93;1.60;;;16.20;67.30;17.30;100160.00;;;;5054737;28;20533;-48
2023/12/29 02:22:07;;;;;;;1.63;1.40;;;16.20;67.40;17.30;100154.00;;;;5083905;28;20202;-48
2023/12/29 02:24:34;;;;;;;1.97;1.60;;;16.30;68.30;17.30;100148.00;;;;5081595;28;20174;-48
2023/12/29 02:27:32;;;;;;;2.57;1.60;;;16.20;67.40;17.30;100160.00;;;;5075291;28;20168;-48
2023/12/29 02:30:36;;;;;;;3.17;1.50;;;16.30;67.60;17.20;100159.00;;;;5050717;28;20730;-48
2023/12/29 02:33:07;;;;;;;2.07;1.50;;;16.20;67.60;17.20;100158.00;;;;5044437;28;20187;-47
2023/12/29 02:35:42;;;;;;;1.90;1.70;;;16.20;67.60;17.20;100155.00;;;;5048164;28;20313;-48
2023/12/29 02:38:08;;;;;;;2.33;1.67;;;16.20;67.60;17.20;100151.00;;;;5081936;28;20161;-48
2023/12/29 02:40:34;;;;;;;2.00;1.70;;;16.20;67.60;17.20;100155.00;;;;5052527;28;20200;-48
2023/12/29 02:42:59;;;;;;;1.60;1.50;;;16.20;67.70;17.20;100156.00;;;;5063556;28;20179;-48
2023/12/29 02:45:25;;;;;;;2.13;1.50;;;16.20;67.70;17.20;100148.00;;;;5077851;28;20215;-48
2023/12/29 02:47:51;;;;;;;2.00;1.67;;;16.20;67.70;17.00;100157.00;;;;5080515;28;20286;-48
2023/12/29 02:50:17;;;;;;;2.03;1.43;;;16.20;67.60;17.20;100150.00;;;;5078259;28;20525;-48
2023/12/29 02:52:43;;;;;;;2.40;1.60;;;16.20;67.70;17.20;100151.00;;;;5079876;28;20181;-48
2023/12/29 02:55:08;;;;;;;1.93;1.70;;;16.20;67.80;17.20;100155.00;;;;5081648;28;20657;-48
2023/12/29 02:57:34;;;;;;;2.17;1.50;;;16.20;67.80;17.20;100150.00;;;;5076101;28;20182;-48
2023/12/29 03:00:00;;;;;;;2.00;1.80;;;16.10;67.80;17.20;100148.00;;;;5078272;28;20171;-48
2023/12/29 03:02:26;;;;;;;2.17;1.53;;;16.20;67.80;17.20;100145.00;;;;5079810;28;20180;-48
2023/12/29 03:04:51;;;;;;;1.97;1.77;;;16.20;67.80;17.20;100153.00;;;;5080944;28;20203;-48
2023/12/29 03:07:17;;;;;;;2.10;1.70;;;16.20;67.80;17.20;100143.00;;;;5080433;28;20712;-48
2023/12/29 03:09:43;;;;;;;1.97;1.67;;;16.20;67.80;17.20;100150.00;;;;5076013;28;20559;-48
2023/12/29 03:12:09;;;;;;;2.10;1.60;;;16.10;67.80;17.20;100151.00;;;;5077890;28;20193;-48
2023/12/29 03:14:35;;;;;;;2.07;1.63;;;16.10;67.80;17.20;100131.00;;;;5078106;28;20587;-49
2023/12/29 03:17:00;;;;;;;1.50;1.40;;;16.10;67.80;17.20;100130.00;;;;5081301;28;20194;-47
2023/12/29 03:19:27;;;;;;;1.90;1.43;;;16.10;67.80;17.20;100128.00;;;;5077341;28;20174;-49
2023/12/29 03:21:53;;;;;;;2.40;1.80;;;16.10;67.80;17.10;100136.00;;;;5082726;28;20198;-49
2023/12/29 03:24:20;;;;;;;2.07;1.70;;;16.10;67.80;17.10;100116.00;;;;5079912;28;20180;-48
2023/12/29 03:26:45;;;;;;;1.97;1.50;;;16.10;67.80;17.10;100139.00;;;;5088500;28;20216;-48
2023/12/29 03:29:12;;;;;;;2.17;1.70;;;16.10;67.70;17.10;100129.00;;;;5075893;28;20217;-48
2023/12/29 03:31:39;;;;;;;2.13;1.70;;;16.10;67.80;17.10;100125.00;;;;5078469;28;20282;-48
2023/12/29 03:34:04;;;;;;;1.90;1.50;;;16.10;67.90;17.10;100128.00;;;;5080374;28;20196;-49
2023/12/29 03:36:30;;;;;;;2.00;1.50;;;16.10;67.90;17.10;100125.00;;;;5057231;28;20182;-48
2023/12/29 03:38:56;;;;;;;2.10;1.60;;;16.10;67.90;17.10;100124.00;;;;5080113;28;20171;-48
2023/12/29 03:41:22;;;;;;;2.30;1.83;;;16.10;67.90;17.10;100117.00;;;;5092242;28;20204;-48
2023/12/29 03:43:47;;;;;;;3.67;1.63;;;16.10;68.20;17.10;100127.00;;;;5080029;28;20189;-47
2023/12/29 03:46:20;;;;;;;1.60;1.50;;;16.10;68.20;17.10;100130.00;;;;5081140;28;20196;-49
2023/12/29 03:48:46;;;;;;;2.20;1.60;;;16.10;68.10;17.10;100126.00;;;;5074394;28;20681;-48
2023/12/29 03:51:11;;;;;;;3.77;1.83;;;16.10;67.90;17.10;100125.00;;;;5074927;28;20206;-48
2023/12/29 03:53:37;;;;;;;2.73;1.90;;;16.10;68.00;17.10;100126.00;;;;5058739;28;20341;-48
2023/12/29 03:56:16;;;;;;;1.73;1.60;;;16.10;67.90;17.10;100125.00;;;;5082893;28;20197;-48
2023/12/29 03:58:42;;;;;;;3.93;1.80;;;16.10;67.90;17.10;100125.00;;;;5077402;28;20261;-48
2023/12/29 04:01:15;;;;;;;2.70;1.83;;;16.10;67.90;17.10;100114.00;;;;5078037;28;20222;-48
2023/12/29 04:03:41;;;;;;;2.03;1.60;;;16.00;67.80;17.10;100116.00;;;;5076523;28;20249;-48
2023/12/29 04:06:07;;;;;;;1.97;1.63;;;16.00;67.80;17.10;100118.00;;;;5078784;28;20256;-48
2023/12/29 04:08:37;;;;;;;2.23;1.70;;;16.00;67.80;17.10;100109.00;;;;5072917;28;20533;-48
2023/12/29 04:11:03;;;;;;;2.90;1.37;;;16.00;67.80;17.10;100113.00;;;;5074476;28;20204;-48
2023/12/29 04:13:29;;;;;;;1.83;1.60;;;16.00;67.80;17.10;100110.00;;;;5074781;28;20182;-48
2023/12/29 04:15:54;;;;;;;2.27;1.70;;;16.00;67.80;17.10;100111.00;;;;5077859;28;20206;-48
2023/12/29 04:18:22;;;;;;;1.97;1.70;;;16.00;67.80;17.00;100100.00;;;;5075917;28;20859;-49
2023/12/29 04:20:48;;;;;;;2.37;1.53;;;16.00;67.80;17.00;100092.00;;;;5072792;28;20257;-48
2023/12/29 04:23:13;;;;;;;3.03;1.80;;;16.00;67.80;17.00;100086.00;;;;5074423;28;20664;-48
2023/12/29 04:25:39;;;;;;;2.87;1.60;;;16.00;67.80;17.00;100098.00;;;;5075396;28;20208;-48
2023/12/29 04:28:06;;;;;;;2.37;1.60;;;16.00;67.70;17.00;100112.00;;;;5077824;28;20204;-48
2023/12/29 04:30:32;;;;;;;2.93;1.80;;;16.00;68.00;17.00;100107.00;;;;5073049;28;20199;-48
2023/12/29 04:32:57;;;;;;;3.53;1.73;;;16.00;68.10;17.00;100111.00;;;;5053670;28;20678;-48
2023/12/29 04:35:23;;;;;;;4.00;2.10;;;16.00;68.10;17.00;100115.00;;;;5078815;28;20197;-46
2023/12/29 04:37:49;;;;;;;2.90;1.67;;;16.00;67.80;17.00;100123.00;;;;5072900;28;20176;-47
2023/12/29 04:40:15;;;;;;;1.70;1.40;;;16.00;67.90;17.00;100120.00;;;;5074005;28;20549;-48
2023/12/29 04:42:41;;;;;;;3.13;1.83;;;16.00;67.90;17.00;100127.00;;;;5076801;28;20169;-48
2023/12/29 04:45:07;;;;;;;2.50;1.70;;;16.00;68.00;17.00;100128.00;;;;5074078;28;20174;-47
2023/12/29 04:47:32;;;;;;;2.73;1.90;;;16.00;68.00;17.00;100131.00;;;;5073962;28;20250;-49
2023/12/29 04:49:58;;;;;;;2.67;1.70;;;15.90;67.80;17.00;100127.00;;;;5077175;28;20175;-49
2023/12/29 04:52:24;;;;;;;2.73;1.90;;;16.00;67.90;17.00;100142.00;;;;5075600;28;20194;-48
2023/12/29 04:54:50;;;;;;;2.77;1.80;;;15.90;67.80;17.00;100123.00;;;;5076202;28;20198;-48
2023/12/29 04:57:15;;;;;;;2.73;1.70;;;15.90;67.70;17.00;100132.00;;;;5076947;28;20195;-51
2023/12/29 04:59:41;;;;;;;2.00;1.60;;;15.90;67.80;17.00;100129.00;;;;5068215;28;20552;-47
2023/12/29 05:02:07;;;;;;;2.13;1.80;;;15.90;67.80;17.00;100128.00;;;;5078168;28;20197;-47
2023/12/29 05:04:32;;;;;;;3.00;1.83;;;15.90;67.70;17.00;100133.00;;;;5073637;28;20175;-48
2023/12/29 05:06:58;;;;;;;3.07;1.80;;;15.90;67.70;17.00;100133.00;;;;5077297;28;20279;-48
2023/12/29 05:09:24;;;;;;;1.70;1.60;;;15.90;67.70;17.00;100135.00;;;;5073937;28;20169;-48
2023/12/29 05:11:50;;;;;;;1.80;1.60;;;15.90;67.70;17.00;100111.00;;;;5079775;28;20344;-49
2023/12/29 05:14:15;;;;;;;2.07;1.50;;;15.90;67.70;16.90;100148.00;;;;5073456;28;20318;-47
2023/12/29 05:16:42;;;;;;;1.90;1.70;;;15.90;67.70;16.90;100153.00;;;;5074455;28;20174;-48
2023/12/29 05:19:08;;;;;;;2.73;1.87;;;15.90;67.70;16.70;100156.00;;;;5068119;28;20166;-52
2023/12/29 05:21:33;;;;;;;3.23;1.53;;;15.90;67.70;16.90;100144.00;;;;5073074;28;20739;-47
2023/12/29 05:23:59;;;;;;;2.73;1.50;;;15.90;67.70;16.90;100133.00;;;;5070821;28;20178;-48
2023/12/29 05:26:25;;;;;;;2.77;1.70;;;15.90;67.70;16.90;100130.00;;;;5073991;28;20174;-47
2023/12/29 05:28:51;;;;;;;2.13;1.80;;;15.90;67.70;16.90;100129.00;;;;5073341;28;20177;-47
2023/12/29 05:31:17;;;;;;;2.13;1.70;;;15.90;67.70;16.90;100142.00;;;;5064272;28;20223;-51
2023/12/29 05:33:46;;;;;;;1.70;1.47;;;15.90;67.70;16.90;100136.00;;;;5083277;28;20189;-49
2023/12/29 05:36:12;;;;;;;2.53;1.97;;;15.90;67.70;16.90;100136.00;;;;5074589;28;20196;-48
2023/12/29 05:38:38;;;;;;;1.97;1.70;;;15.90;67.70;16.90;100134.00;;;;5073764;28;20827;-47
2023/12/29 05:41:04;;;;;;;2.47;1.73;;;15.90;67.70;16.90;100146.00;;;;5079242;28;20535;-48
2023/12/29 05:43:34;;;;;;;2.10;1.70;;;15.80;67.60;16.90;100152.00;;;;5077687;28;20171;-47
2023/12/29 05:46:00;;;;;;;2.03;1.80;;;15.80;67.60;16.90;100152.00;;;;5079848;28;20192;-47
2023/12/29 05:48:26;;;;;;;3.03;1.90;;;15.80;67.60;16.90;100151.00;;;;5073931;28;20261;-47
2023/12/29 05:50:52;;;;;;;2.50;1.50;;;15.80;67.60;16.90;100146.00;;;;5074607;28;20634;-48
2023/12/29 05:53:18;;;;;;;2.73;1.50;;;15.80;67.60;16.90;100149.00;;;;5075042;28;20178;-49
2023/12/29 05:55:44;;;;;;;3.47;1.57;;;15.80;67.60;16.90;100153.00;;;;5070350;28;20200;-47
2023/12/29 05:58:10;;;;;;;2.53;1.80;;;15.80;67.60;16.80;100157.00;;;;5072064;28;20174;-47
2023/12/29 06:00:37;;;;;;;1.70;1.40;;;15.80;67.60;16.80;100143.00;;;;5046356;28;20202;-47
2023/12/29 06:03:05;;;;;;;2.30;1.70;;;15.80;67.60;16.80;100158.00;;;;5075791;28;20185;-48
2023/12/29 06:05:32;;;;;;;2.80;1.80;;;15.80;67.60;16.80;100144.00;;;;5047336;28;20185;-48
2023/12/29 06:07:58;;;;;;;2.30;1.90;;;15.80;67.60;16.80;100141.00;;;;5075599;28;20178;-48
2023/12/29 06:10:23;;;;;;;2.60;1.70;;;15.80;67.60;16.80;100146.00;;;;5048948;28;20199;-48
2023/12/29 06:12:49;;;;;;;1.50;1.40;;;15.80;67.60;16.80;100150.00;;;;5074384;28;20185;-48
2023/12/29 06:15:15;;;;;;;2.73;1.90;;;15.80;67.60;16.80;100150.00;;;;5074805;28;20209;-47
2023/12/29 06:17:41;;;;;;;2.53;1.70;;;15.80;67.60;16.80;100146.00;;;;5070161;28;20179;-48
2023/12/29 06:20:09;;;;;;;2.90;1.80;;;15.80;67.60;16.80;100155.00;;;;5075838;28;20169;-47
2023/12/29 06:22:39;;;;;;;3.13;1.70;;;15.80;67.60;16.80;100150.00;;;;5075067;28;20189;-47
2023/12/29 06:25:05;;;;;;;1.90;1.73;;;15.80;67.60;16.80;100154.00;;;;5026707;28;20175;-47
2023/12/29 06:27:32;;;;;;;2.10;1.57;;;15.80;67.90;16.80;100153.00;;;;5070270;28;20231;-51
2023/12/29 06:29:58;;;;;;;2.30;1.73;;;15.80;68.70;16.80;100153.00;;;;5075321;28;20205;-50
2023/12/29 06:32:23;;;;;;;6.03;1.97;;;15.80;67.90;16.80;100150.00;;;;5072329;28;20205;-48
2023/12/29 06:34:49;;;;;;;3.10;1.90;;;15.80;67.80;16.80;100147.00;;;;5070725;28;20237;-48
2023/12/29 06:37:15;;;;;;;3.43;1.60;;;15.70;67.80;16.80;100152.00;;;;5071433;28;20205;-49
2023/12/29 06:39:41;;;;;;;2.37;1.70;;;15.70;67.80;16.80;100147.00;;;;5069989;28;20176;-48
2023/12/29 06:42:06;;;;;;;3.47;1.70;;;15.70;68.70;16.80;100153.00;;;;5073221;28;20733;-47
2023/12/29 06:44:32;;;;;;;2.90;1.40;;;15.70;67.90;16.80;100153.00;;;;5069906;28;20179;-49
2023/12/29 06:46:58;;;;;;;2.73;1.60;;;15.80;68.00;16.80;100143.00;;;;5077540;28;20215;-48
2023/12/29 06:49:24;;;;;;;1.97;1.77;;;15.70;67.90;16.80;100143.00;;;;5074573;28;20169;-48
2023/12/29 06:51:49;;;;;;;2.23;1.83;;;15.70;67.90;16.80;100148.00;;;;5070241;28;20226;-48
2023/12/29 06:54:15;;;;;;;2.87;1.70;;;15.70;67.90;16.80;100147.00;;;;5045046;28;20213;-49
2023/12/29 06:56:41;;;;;;;2.70;1.60;;;15.70;67.90;16.80;100150.00;;;;5052125;28;20183;-48
2023/12/29 06:59:07;;;;;;;2.53;1.60;;;15.70;67.90;16.70;100133.00;;;;5069809;28;20204;-48
2023/12/29 07:01:32;;;;;;;2.50;1.70;;;15.70;67.90;16.80;100146.00;;;;5070895;28;20193;-47
2023/12/29 07:03:58;;;;;;;3.57;1.70;;;15.70;67.90;16.80;100146.00;;;;5074684;28;20169;-55
2023/12/29 07:06:24;;;;;;;1.63;1.47;;;15.70;67.90;16.80;100134.00;;;;5071969;28;20177;-48
2023/12/29 07:08:50;;;;;;;4.13;1.80;;;15.70;67.80;16.80;100136.00;;;;5073687;28;20184;-47
2023/12/29 07:11:15;;;;;;;2.57;1.90;;;15.70;67.80;16.80;100129.00;;;;5076401;28;20220;-52
2023/12/29 07:13:41;;;;;;;2.27;1.60;;;15.70;67.90;16.80;100130.00;;;;5068698;28;20179;-47
2023/12/29 07:16:07;;;;;;;3.70;1.80;;;15.70;67.90;16.80;100134.00;;;;5075910;28;20895;-48
2023/12/29 07:18:33;;;;;;;2.23;1.53;;;15.70;67.90;16.80;100127.00;;;;5069227;28;20220;-48
2023/12/29 07:20:58;;;;;;;2.17;1.53;;;15.70;67.90;16.80;100130.00;;;;5065010;28;20189;-48
2023/12/29 07:23:24;;;;;;;2.97;1.73;;;15.70;67.90;16.80;100134.00;;;;5082750;28;20171;-48
2023/12/29 07:25:50;;;;;;;2.00;1.43;;;15.70;67.90;16.70;100130.00;;;;5083357;28;20191;-47
2023/12/29 07:28:16;;;;;;;2.20;1.80;;;15.70;67.90;16.70;100120.00;;;;5054970;28;20178;-46
2023/12/29 07:30:41;;;;;;;2.03;1.43;;;15.70;67.80;16.70;100119.00;;;;5078482;28;20200;-48
2023/12/29 07:33:07;;;;;;;2.07;1.63;;;15.70;67.80;16.70;100117.00;;;;5053223;28;20178;-47
2023/12/29 07:35:33;;;;;;;2.77;1.60;;;15.70;67.80;16.70;100107.00;;;;5061052;28;20195;-55
2023/12/29 07:37:59;;;;;;;2.43;1.50;;;15.70;67.90;16.70;100109.00;;;;5090687;28;20176;-49
2023/12/29 07:40:25;;;;;;;3.70;1.80;;;15.70;67.80;16.70;100113.00;;;;5072625;28;20596;-48
2023/12/29 07:42:52;;;;;;;2.30;1.40;;;15.70;67.90;16.70;100113.00;;;;5081121;28;20560;-48
2023/12/29 07:45:18;;;;;;;2.73;1.40;;;15.60;67.70;16.70;100119.00;;;;5074392;28;20534;-48
2023/12/29 07:47:44;;;;;;;2.53;1.60;;;15.60;67.70;16.70;100120.00;;;;5078911;28;20172;-48
2023/12/29 07:50:09;;;;;;;1.83;1.50;;;15.70;67.90;16.70;100117.00;;;;5077115;28;20853;-48
2023/12/29 07:52:35;;;;;;;2.40;1.80;;;15.60;67.80;16.70;100107.00;;;;5071702;28;20573;-48
2023/12/29 07:55:01;;;;;;;2.30;1.70;;;15.60;68.60;16.70;100115.00;;;;5076844;28;20548;-49
2023/12/29 07:57:27;;;;;;;1.67;1.57;;;15.60;67.80;16.70;100104.00;;;;5076549;28;20528;-48
2023/12/29 07:59:52;;;;;;;1.77;1.40;;;15.60;67.80;16.70;100115.00;;;;5077036;28;20175;-47
2023/12/29 08:02:18;;;;;;;2.00;1.57;;;15.60;67.80;16.70;100118.00;;;;5076084;28;20258;-48
2023/12/29 08:04:46;;;;;;;1.60;1.50;;;15.60;67.80;16.70;100123.00;;;;5072000;28;20183;-47
2023/12/29 08:07:12;;;;;;;1.50;1.27;;;15.60;67.80;16.70;100127.00;;;;5074235;28;20212;-48
2023/12/29 08:09:38;;;;;;;2.00;1.50;;;15.60;67.80;16.70;100119.00;;;;5074002;28;20174;-48
2023/12/29 08:12:04;;;;;;;1.77;1.43;;;15.60;67.90;16.70;100131.00;;;;5077181;28;20576;-47
2023/12/29 08:14:29;;;;;;;2.20;1.30;;;15.60;68.00;16.70;100141.00;;;;5052063;28;20273;-47
2023/12/29 08:16:56;;;;;;;2.57;1.53;;;15.60;68.20;16.70;100137.00;;;;5055795;28;20169;-47
2023/12/29 08:19:22;;;;;;;1.53;1.33;;;15.60;68.30;16.70;100143.00;;;;5074620;28;20172;-47
2023/12/29 08:21:48;;;;;;;3.80;1.53;;;15.60;68.20;16.60;100136.00;;;;5070006;28;20203;-47
2023/12/29 08:24:14;;;;;;;2.00;1.70;;;15.60;68.30;16.70;100151.00;;;;5038950;28;20194;-47
2023/12/29 08:26:46;;;;;;;2.90;1.57;;;15.60;68.20;16.70;100158.00;;;;5068249;28;20179;-48
2023/12/29 08:29:13;;;;;;;1.77;1.63;;;15.70;68.30;16.70;100160.00;;;;5072441;28;20311;-49
2023/12/29 08:31:39;;;;;;;2.93;1.50;;;15.80;68.70;16.70;100152.00;;;;5070902;28;20190;-49
2023/12/29 08:34:04;;;;;;;3.93;1.83;;;15.80;68.50;16.70;100167.00;;;;5040347;28;20844;-50
2023/12/29 08:36:30;;;;;;;1.97;1.50;;;15.90;69.40;16.70;100154.00;;;;5073363;28;20198;-49
2023/12/29 08:38:56;;;;;;;3.27;1.73;;;16.00;68.60;16.80;100155.00;;;;5078119;28;20176;-49
2023/12/29 08:41:22;;;;;;;3.27;1.73;;;16.10;68.50;16.90;100152.00;;;;5076500;28;20247;-49
2023/12/29 08:43:48;;;;;;;3.50;1.50;;;16.20;68.40;16.90;100151.00;;;;5077325;28;20182;-50
2023/12/29 08:46:14;;;;;;;1.73;1.50;;;16.30;68.30;17.00;100150.00;;;;5078939;28;20566;-50
2023/12/29 08:48:39;;;;;;;1.93;1.70;;;16.50;68.30;17.10;100135.00;;;;5067272;28;20212;-50
2023/12/29 08:51:06;;;;;;;2.43;1.53;;;16.60;68.30;17.20;100135.00;;;;5060555;28;20205;-50
2023/12/29 08:53:35;;;;;;;1.77;1.50;;;16.60;68.20;17.20;100129.00;;;;5073907;28;20583;-49
2023/12/29 08:56:01;;;;;;;1.43;1.33;;;16.70;68.00;17.30;100134.00;;;;5078653;28;20627;-50
2023/12/29 08:58:27;;;;;;;1.90;1.63;;;16.70;68.00;17.40;100143.00;;;;5074690;28;20174;-49
2023/12/29 09:00:53;;;;;;;2.00;1.53;;;16.80;68.00;17.40;100140.00;;;;5077168;28;20783;-50
2023/12/29 09:03:19;;;;;;;1.80;1.37;;;16.80;68.10;17.40;100135.00;;;;5077263;28;20175;-49
2023/12/29 09:05:44;;;;;;;2.73;1.60;;;16.80;68.10;17.50;100147.00;;;;5074550;28;20184;-50
2023/12/29 09:08:10;;;;;;;3.13;1.50;;;16.90;68.30;17.50;100147.00;;;;5078463;28;20184;-50
2023/12/29 09:10:36;;;;;;;1.70;1.50;;;16.90;68.20;17.50;100150.00;;;;5071593;28;20253;-50
2023/12/29 09:13:02;;;;;;;1.57;1.47;;;16.90;68.30;17.60;100162.00;;;;5078059;28;20191;-50
2023/12/29 09:15:27;;;;;;;2.27;1.47;;;16.90;68.40;17.60;100166.00;;;;5074509;28;20215;-50
2023/12/29 09:17:53;;;;;;;1.77;1.50;;;16.90;68.40;17.60;100167.00;;;;5076705;28;20200;-50
2023/12/29 09:20:19;;;;;;;2.17;1.50;;;16.90;68.50;17.60;100166.00;;;;5071200;28;20174;-50
2023/12/29 09:22:44;;;;;;;1.50;1.40;;;16.90;68.50;17.60;100165.00;;;;5075781;28;20558;-49
2023/12/29 09:25:10;;;;;;;1.53;1.43;;;16.90;68.60;17.70;100170.00;;;;5078048;28;20691;-50
2023/12/29 09:27:36;;;;;;;1.90;1.70;;;17.00;68.70;17.70;100171.00;;;;5072260;28;20178;-49
2023/12/29 09:30:02;;;;;;;1.60;1.30;;;17.00;68.60;17.70;100176.00;;;;5079301;28;20180;-50
2023/12/29 09:32:28;;;;;;;1.87;1.60;;;16.90;68.60;17.70;100162.00;;;;5070541;28;20242;-49
2023/12/29 09:34:53;;;;;;;1.57;1.47;;;17.00;68.80;17.70;100160.00;;;;5058701;28;20202;-50
2023/12/29 09:37:19;;;;;;;1.60;1.27;;;17.00;68.80;17.80;100154.00;;;;5076628;28;20223;-50
2023/12/29 09:39:45;;;;;;;2.53;1.30;;;17.00;68.70;17.80;100152.00;;;;5076200;28;20542;-49
2023/12/29 09:42:24;;;;;;;1.50;1.40;;;17.10;68.80;17.80;100169.00;;;;5068807;28;20636;-49
2023/12/29 09:44:51;;;;;;;1.63;1.20;;;17.10;68.90;17.80;100162.00;;;;5067565;28;20543;-50
2023/12/29 09:47:25;;;;;;;2.27;1.20;;;17.10;69.00;17.80;100154.00;;;;5055266;28;20188;-51
2023/12/29 09:49:54;;;;;;;1.40;1.30;;;17.10;69.00;17.80;100164.00;;;;5086747;28;20270;-51
2023/12/29 09:52:21;;;;;;;1.40;1.30;;;17.10;69.00;17.80;100153.00;;;;5075060;28;20196;-51
2023/12/29 09:54:49;;;;;;;1.40;1.30;;;17.10;69.00;17.80;100154.00;;;;5073662;28;20290;-50
2023/12/29 09:57:16;;;;;;;1.03;1.03;;;17.10;69.10;17.90;100148.00;;;;5052147;28;20251;-51
2023/12/29 09:59:41;;;;;;;1.40;1.30;;;17.10;69.20;17.90;100161.00;;;;5069903;28;20562;-51
2023/12/29 10:02:15;;;;;;;1.57;1.47;;;17.10;69.30;17.90;100147.00;;;;5050199;28;20192;-49
2023/12/29 10:04:41;;;;;;;3.33;1.30;;;17.10;69.20;17.90;100149.00;;;;5056420;28;20196;-50
2023/12/29 10:07:07;;;;;;;1.50;1.33;;;17.20;69.30;17.70;100137.00;;;;5077224;28;20177;-50
2023/12/29 10:09:33;;;;;;;1.40;1.30;;;17.20;69.50;17.90;100147.00;;;;5022777;28;20252;-50
2023/12/29 10:11:59;;;;;;;2.87;1.60;;;17.20;69.40;17.90;100146.00;;;;5096652;28;20226;-50
2023/12/29 10:14:34;;;;;;;1.53;1.43;;;17.20;69.40;17.90;100149.00;;;;5031418;28;20227;-50
2023/12/29 10:17:24;;;;;;;1.40;1.10;;;17.20;69.30;17.90;100129.00;;;;5054241;28;20279;-50
2023/12/29 10:20:06;;;;;;;3.47;1.20;;;17.20;69.40;17.90;100149.00;;;;5034139;28;20668;-50
2023/12/29 10:22:49;;;;;;;2.80;1.30;;;17.20;69.40;17.90;100140.00;;;;5017651;28;20277;-51
2023/12/29 10:25:15;;;;;;;3.17;1.50;;;17.20;69.40;17.90;100144.00;;;;5049257;28;20226;-51
2023/12/29 10:27:41;;;;;;;3.20;1.50;;;17.20;69.70;17.90;100138.00;;;;5084906;28;20609;-49
2023/12/29 10:30:10;;;;;;;4.97;1.70;;;17.20;69.90;17.90;100139.00;;;;5077911;28;20186;-49
2023/12/29 10:32:35;;;;;;;5.23;1.50;;;17.20;69.70;17.90;100144.00;;;;5007238;28;20177;-50
2023/12/29 10:35:11;;;;;;;2.63;1.40;;;17.20;69.60;18.00;100140.00;;;;5068672;28;20204;-49
2023/12/29 10:37:38;;;;;;;4.40;1.37;;;17.20;69.50;18.00;100137.00;;;;5070890;28;20176;-50
2023/12/29 10:40:05;;;;;;;2.97;1.40;;;17.20;69.50;18.00;100132.00;;;;5071363;28;20214;-50
2023/12/29 10:42:30;;;;;;;1.40;1.30;;;17.20;69.50;17.90;100140.00;;;;5073989;28;20249;-49
2023/12/29 10:45:07;;;;;;;3.03;1.40;;;17.20;69.50;18.00;100143.00;;;;5072859;28;20180;-50
2023/12/29 10:47:34;;;;;;;3.43;1.43;;;17.20;69.40;18.00;100148.00;;;;5069313;28;20210;-50